sensor_id;sensor_type;location;lat;lon;timestamp;temperature;humidity
73277;DHT22;61501;43.316;5.372;2023-04-24T00:01:32;15.10;99.90
73277;DHT22;61501;43.316;5.372;2023-04-24T00:03:59;15.10;99.90
73277;DHT22;61501;43.316;5.372;2023-04-24T00:06:27;15.10;99.90
73277;DHT22;61501;43.316;5.372;2023-04-24T00:09:03;15.10;99.90
73277;DHT22;61501;43.316;5.372;2023-04-24T00:11:29;15.10;99.90
73277;DHT22;61501;43.316;5.372;2023-04-24T00:13:55;15.10;99.90
73277;DHT22;61501;43.316;5.372;2023-04-24T00:16:21;15.10;99.90
73277;DHT22;61501;43.316;5.372;2023-04-24T00:18:47;15.10;99.90
73277;DHT22;61501;43.316;5.372;2023-04-24T00:21:16;15.10;99.90
73277;DHT22;61501;43.316;5.372;2023-04-24T00:23:43;15.00;99.90
73277;DHT22;61501;43.316;5.372;2023-04-24T00:26:09;15.00;99.90
73277;DHT22;61501;43.316;5.372;2023-04-24T00:28:35;15.10;99.90
73277;DHT22;61501;43.316;5.372;2023-04-24T00:31:01;15.10;99.90
73277;DHT22;61501;43.316;5.372;2023-04-24T00:33:26;15.10;99.90
73277;DHT22;61501;43.316;5.372;2023-04-24T00:35:52;15.10;99.90
73277;DHT22;61501;43.316;5.372;2023-04-24T00:38:18;15.10;99.90
73277;DHT22;61501;43.316;5.372;2023-04-24T00:40:44;15.10;99.90
73277;DHT22;61501;43.316;5.372;2023-04-24T00:43:10;15.10;99.90
73277;DHT22;61501;43.316;5.372;2023-04-24T00:45:36;15.10;99.90
73277;DHT22;61501;43.316;5.372;2023-04-24T00:48:01;15.10;99.90
73277;DHT22;61501;43.316;5.372;2023-04-24T00:50:28;15.10;99.90
73277;DHT22;61501;43.316;5.372;2023-04-24T00:52:54;15.10;99.90
73277;DHT22;61501;43.316;5.372;2023-04-24T00:55:20;15.10;99.90
73277;DHT22;61501;43.316;5.372;2023-04-24T00:57:46;15.10;99.90
73277;DHT22;61501;43.316;5.372;2023-04-24T01:00:14;15.00;99.90
73277;DHT22;61501;43.316;5.372;2023-04-24T01:02:43;15.10;99.90
73277;DHT22;61501;43.316;5.372;2023-04-24T01:05:11;15.00;99.90
73277;DHT22;61501;43.316;5.372;2023-04-24T01:07:38;15.00;99.90
73277;DHT22;61501;43.316;5.372;2023-04-24T01:10:05;14.90;99.90
73277;DHT22;61501;43.316;5.372;2023-04-24T01:12:32;14.90;99.90
73277;DHT22;61501;43.316;5.372;2023-04-24T01:14:58;14.90;99.90
73277;DHT22;61501;43.316;5.372;2023-04-24T01:17:23;14.90;99.90
73277;DHT22;61501;43.316;5.372;2023-04-24T01:19:49;14.90;99.90
73277;DHT22;61501;43.316;5.372;2023-04-24T01:22:15;14.90;99.90
73277;DHT22;61501;43.316;5.372;2023-04-24T01:24:42;14.90;99.90
73277;DHT22;61501;43.316;5.372;2023-04-24T01:27:09;14.90;99.90
73277;DHT22;61501;43.316;5.372;2023-04-24T01:29:36;14.80;99.90
73277;DHT22;61501;43.316;5.372;2023-04-24T01:32:02;14.80;99.90
73277;DHT22;61501;43.316;5.372;2023-04-24T01:34:30;14.80;99.90
73277;DHT22;61501;43.316;5.372;2023-04-24T01:36:56;14.80;99.90
73277;DHT22;61501;43.316;5.372;2023-04-24T01:39:22;14.80;99.90
73277;DHT22;61501;43.316;5.372;2023-04-24T01:41:52;14.80;99.90
73277;DHT22;61501;43.316;5.372;2023-04-24T01:44:18;14.80;99.90
73277;DHT22;61501;43.316;5.372;2023-04-24T01:46:44;14.80;99.90
73277;DHT22;61501;43.316;5.372;2023-04-24T01:49:10;14.80;99.90
73277;DHT22;61501;43.316;5.372;2023-04-24T01:51:36;14.70;99.90
73277;DHT22;61501;43.316;5.372;2023-04-24T01:54:02;14.70;99.90
73277;DHT22;61501;43.316;5.372;2023-04-24T01:56:29;14.70;99.90
73277;DHT22;61501;43.316;5.372;2023-04-24T01:58:56;14.70;99.90
73277;DHT22;61501;43.316;5.372;2023-04-24T02:01:23;14.70;99.90
73277;DHT22;61501;43.316;5.372;2023-04-24T02:03:49;14.70;99.90
73277;DHT22;61501;43.316;5.372;2023-04-24T02:06:15;14.70;99.90
73277;DHT22;61501;43.316;5.372;2023-04-24T02:08:41;14.70;99.90
73277;DHT22;61501;43.316;5.372;2023-04-24T02:11:09;14.60;99.90
73277;DHT22;61501;43.316;5.372;2023-04-24T02:13:34;14.60;99.90
73277;DHT22;61501;43.316;5.372;2023-04-24T02:16:00;14.60;99.90
73277;DHT22;61501;43.316;5.372;2023-04-24T02:18:26;14.60;99.90
73277;DHT22;61501;43.316;5.372;2023-04-24T02:20:51;14.60;99.90
73277;DHT22;61501;43.316;5.372;2023-04-24T02:23:17;14.60;99.90
73277;DHT22;61501;43.316;5.372;2023-04-24T02:25:43;14.50;99.90
73277;DHT22;61501;43.316;5.372;2023-04-24T02:28:08;14.60;99.90
73277;DHT22;61501;43.316;5.372;2023-04-24T02:30:34;14.60;99.90
73277;DHT22;61501;43.316;5.372;2023-04-24T02:32:59;14.50;99.90
73277;DHT22;61501;43.316;5.372;2023-04-24T02:35:25;14.50;99.90
73277;DHT22;61501;43.316;5.372;2023-04-24T02:37:51;14.50;99.90
73277;DHT22;61501;43.316;5.372;2023-04-24T02:40:16;14.60;99.90
73277;DHT22;61501;43.316;5.372;2023-04-24T02:42:42;14.50;99.90
73277;DHT22;61501;43.316;5.372;2023-04-24T02:45:08;14.50;99.90
73277;DHT22;61501;43.316;5.372;2023-04-24T02:47:34;14.50;99.90
73277;DHT22;61501;43.316;5.372;2023-04-24T02:49:59;14.50;99.90
73277;DHT22;61501;43.316;5.372;2023-04-24T02:52:25;14.50;99.90
73277;DHT22;61501;43.316;5.372;2023-04-24T02:54:51;14.40;99.90
73277;DHT22;61501;43.316;5.372;2023-04-24T02:57:16;14.40;99.90
73277;DHT22;61501;43.316;5.372;2023-04-24T02:59:42;14.40;99.90
73277;DHT22;61501;43.316;5.372;2023-04-24T03:02:08;14.40;99.90
73277;DHT22;61501;43.316;5.372;2023-04-24T03:04:33;14.30;99.90
73277;DHT22;61501;43.316;5.372;2023-04-24T03:06:59;14.30;99.90
73277;DHT22;61501;43.316;5.372;2023-04-24T03:09:25;14.30;99.90
73277;DHT22;61501;43.316;5.372;2023-04-24T03:11:50;14.30;99.90
73277;DHT22;61501;43.316;5.372;2023-04-24T03:14:16;14.30;99.90
73277;DHT22;61501;43.316;5.372;2023-04-24T03:16:42;14.30;99.90
73277;DHT22;61501;43.316;5.372;2023-04-24T03:19:08;14.30;99.90
73277;DHT22;61501;43.316;5.372;2023-04-24T03:21:34;14.20;99.90
73277;DHT22;61501;43.316;5.372;2023-04-24T03:24:01;14.20;99.90
73277;DHT22;61501;43.316;5.372;2023-04-24T03:26:26;14.20;99.90
73277;DHT22;61501;43.316;5.372;2023-04-24T03:28:52;14.10;99.90
73277;DHT22;61501;43.316;5.372;2023-04-24T03:31:17;14.20;99.90
73277;DHT22;61501;43.316;5.372;2023-04-24T03:33:44;14.10;99.90
73277;DHT22;61501;43.316;5.372;2023-04-24T03:36:10;14.10;99.90
73277;DHT22;61501;43.316;5.372;2023-04-24T03:38:35;14.10;99.90
73277;DHT22;61501;43.316;5.372;2023-04-24T03:41:01;14.10;99.90
73277;DHT22;61501;43.316;5.372;2023-04-24T03:43:27;14.00;99.90
73277;DHT22;61501;43.316;5.372;2023-04-24T03:45:53;14.00;99.90
73277;DHT22;61501;43.316;5.372;2023-04-24T03:48:18;13.90;99.90
73277;DHT22;61501;43.316;5.372;2023-04-24T03:50:44;13.90;99.90
73277;DHT22;61501;43.316;5.372;2023-04-24T03:53:10;13.90;99.90
73277;DHT22;61501;43.316;5.372;2023-04-24T03:55:35;13.80;99.90
73277;DHT22;61501;43.316;5.372;2023-04-24T03:58:01;13.80;99.90
73277;DHT22;61501;43.316;5.372;2023-04-24T04:00:27;13.80;99.90
73277;DHT22;61501;43.316;5.372;2023-04-24T04:02:53;13.80;99.90
73277;DHT22;61501;43.316;5.372;2023-04-24T04:05:18;13.80;99.90
73277;DHT22;61501;43.316;5.372;2023-04-24T04:07:44;13.80;99.90
73277;DHT22;61501;43.316;5.372;2023-04-24T04:10:10;13.80;99.90
73277;DHT22;61501;43.316;5.372;2023-04-24T04:12:35;13.80;99.90
73277;DHT22;61501;43.316;5.372;2023-04-24T04:15:01;13.80;99.90
73277;DHT22;61501;43.316;5.372;2023-04-24T04:17:27;13.80;99.90
73277;DHT22;61501;43.316;5.372;2023-04-24T04:19:52;13.80;99.90
73277;DHT22;61501;43.316;5.372;2023-04-24T04:22:18;13.80;99.90
73277;DHT22;61501;43.316;5.372;2023-04-24T04:24:43;13.80;99.90
73277;DHT22;61501;43.316;5.372;2023-04-24T04:27:10;13.80;99.90
73277;DHT22;61501;43.316;5.372;2023-04-24T04:29:36;13.80;99.90
73277;DHT22;61501;43.316;5.372;2023-04-24T04:32:02;13.80;99.90
73277;DHT22;61501;43.316;5.372;2023-04-24T04:34:27;13.80;99.90
73277;DHT22;61501;43.316;5.372;2023-04-24T04:36:55;13.80;99.90
73277;DHT22;61501;43.316;5.372;2023-04-24T04:39:20;13.80;99.90
73277;DHT22;61501;43.316;5.372;2023-04-24T04:41:46;13.90;99.90
73277;DHT22;61501;43.316;5.372;2023-04-24T04:44:14;13.80;99.90
73277;DHT22;61501;43.316;5.372;2023-04-24T04:46:40;13.80;99.90
73277;DHT22;61501;43.316;5.372;2023-04-24T04:49:07;13.80;99.90
73277;DHT22;61501;43.316;5.372;2023-04-24T04:51:34;13.80;99.90
73277;DHT22;61501;43.316;5.372;2023-04-24T04:54:00;13.80;99.90
73277;DHT22;61501;43.316;5.372;2023-04-24T04:56:25;13.80;99.90
73277;DHT22;61501;43.316;5.372;2023-04-24T04:58:51;13.90;99.90
73277;DHT22;61501;43.316;5.372;2023-04-24T05:01:17;13.90;99.90
73277;DHT22;61501;43.316;5.372;2023-04-24T05:03:42;13.90;99.90
73277;DHT22;61501;43.316;5.372;2023-04-24T05:06:08;13.90;99.90
73277;DHT22;61501;43.316;5.372;2023-04-24T05:08:34;13.90;99.90
73277;DHT22;61501;43.316;5.372;2023-04-24T05:11:00;13.90;99.90
73277;DHT22;61501;43.316;5.372;2023-04-24T05:13:25;13.90;99.90
73277;DHT22;61501;43.316;5.372;2023-04-24T05:15:51;13.90;99.90
73277;DHT22;61501;43.316;5.372;2023-04-24T05:18:17;13.90;99.90
73277;DHT22;61501;43.316;5.372;2023-04-24T05:20:42;13.90;99.90
73277;DHT22;61501;43.316;5.372;2023-04-24T05:23:09;13.90;99.90
73277;DHT22;61501;43.316;5.372;2023-04-24T05:25:35;13.90;99.90
73277;DHT22;61501;43.316;5.372;2023-04-24T05:28:01;13.90;99.90
73277;DHT22;61501;43.316;5.372;2023-04-24T05:30:28;13.90;99.90
73277;DHT22;61501;43.316;5.372;2023-04-24T05:32:53;13.90;99.90
73277;DHT22;61501;43.316;5.372;2023-04-24T05:35:19;13.90;99.90
73277;DHT22;61501;43.316;5.372;2023-04-24T05:37:44;13.90;99.90
73277;DHT22;61501;43.316;5.372;2023-04-24T05:40:11;13.90;99.90
73277;DHT22;61501;43.316;5.372;2023-04-24T05:42:37;13.90;99.90
73277;DHT22;61501;43.316;5.372;2023-04-24T05:45:03;13.90;99.90
73277;DHT22;61501;43.316;5.372;2023-04-24T05:47:29;14.00;99.90
73277;DHT22;61501;43.316;5.372;2023-04-24T05:49:54;14.00;99.90
73277;DHT22;61501;43.316;5.372;2023-04-24T05:52:20;14.10;99.90
73277;DHT22;61501;43.316;5.372;2023-04-24T05:54:45;14.10;99.90
73277;DHT22;61501;43.316;5.372;2023-04-24T05:57:11;14.10;99.90
73277;DHT22;61501;43.316;5.372;2023-04-24T05:59:37;14.10;99.90
73277;DHT22;61501;43.316;5.372;2023-04-24T06:02:06;14.10;99.90
73277;DHT22;61501;43.316;5.372;2023-04-24T06:04:32;14.10;99.90
73277;DHT22;61501;43.316;5.372;2023-04-24T06:06:59;14.10;99.90
73277;DHT22;61501;43.316;5.372;2023-04-24T06:09:25;14.10;99.90
73277;DHT22;61501;43.316;5.372;2023-04-24T06:11:51;14.10;99.90
73277;DHT22;61501;43.316;5.372;2023-04-24T06:14:18;14.10;99.90
73277;DHT22;61501;43.316;5.372;2023-04-24T06:16:44;14.20;99.90
73277;DHT22;61501;43.316;5.372;2023-04-24T06:19:10;14.20;99.90
73277;DHT22;61501;43.316;5.372;2023-04-24T06:21:35;14.30;99.90
73277;DHT22;61501;43.316;5.372;2023-04-24T06:24:01;14.40;99.90
73277;DHT22;61501;43.316;5.372;2023-04-24T06:26:27;14.30;99.90
73277;DHT22;61501;43.316;5.372;2023-04-24T06:28:53;14.30;99.90
73277;DHT22;61501;43.316;5.372;2023-04-24T06:31:19;14.40;99.90
73277;DHT22;61501;43.316;5.372;2023-04-24T06:33:45;14.40;99.90
73277;DHT22;61501;43.316;5.372;2023-04-24T06:36:12;14.50;99.90
73277;DHT22;61501;43.316;5.372;2023-04-24T06:38:38;14.60;99.90
73277;DHT22;61501;43.316;5.372;2023-04-24T06:41:03;14.50;99.90
73277;DHT22;61501;43.316;5.372;2023-04-24T06:43:31;14.60;99.90
73277;DHT22;61501;43.316;5.372;2023-04-24T06:45:57;14.70;99.90
73277;DHT22;61501;43.316;5.372;2023-04-24T06:48:24;14.70;99.90
73277;DHT22;61501;43.316;5.372;2023-04-24T06:50:49;14.70;99.90
73277;DHT22;61501;43.316;5.372;2023-04-24T06:53:15;14.70;99.90
73277;DHT22;61501;43.316;5.372;2023-04-24T06:55:41;14.80;99.90
73277;DHT22;61501;43.316;5.372;2023-04-24T06:58:07;14.80;99.90
73277;DHT22;61501;43.316;5.372;2023-04-24T07:00:33;14.80;99.90
73277;DHT22;61501;43.316;5.372;2023-04-24T07:02:58;14.80;99.90
73277;DHT22;61501;43.316;5.372;2023-04-24T07:05:24;14.90;99.90
73277;DHT22;61501;43.316;5.372;2023-04-24T07:07:50;14.90;99.90
73277;DHT22;61501;43.316;5.372;2023-04-24T07:10:16;15.00;99.90
73277;DHT22;61501;43.316;5.372;2023-04-24T07:12:42;15.00;99.90
73277;DHT22;61501;43.316;5.372;2023-04-24T07:15:08;15.00;99.90
73277;DHT22;61501;43.316;5.372;2023-04-24T07:17:34;15.10;99.90
73277;DHT22;61501;43.316;5.372;2023-04-24T07:20:00;15.10;99.90
73277;DHT22;61501;43.316;5.372;2023-04-24T07:22:26;15.20;99.90
73277;DHT22;61501;43.316;5.372;2023-04-24T07:24:52;15.20;99.90
73277;DHT22;61501;43.316;5.372;2023-04-24T07:27:17;15.20;99.90
73277;DHT22;61501;43.316;5.372;2023-04-24T07:29:43;15.30;99.90
73277;DHT22;61501;43.316;5.372;2023-04-24T07:32:08;15.30;99.90
73277;DHT22;61501;43.316;5.372;2023-04-24T07:34:34;15.40;99.90
73277;DHT22;61501;43.316;5.372;2023-04-24T07:37:00;15.40;99.90
73277;DHT22;61501;43.316;5.372;2023-04-24T07:39:27;15.40;99.90
73277;DHT22;61501;43.316;5.372;2023-04-24T07:41:53;15.50;99.90
73277;DHT22;61501;43.316;5.372;2023-04-24T07:44:18;15.60;99.90
73277;DHT22;61501;43.316;5.372;2023-04-24T07:46:44;15.60;99.90
73277;DHT22;61501;43.316;5.372;2023-04-24T07:49:10;15.60;99.90
73277;DHT22;61501;43.316;5.372;2023-04-24T07:51:35;15.60;99.90
73277;DHT22;61501;43.316;5.372;2023-04-24T07:54:04;15.60;99.90
73277;DHT22;61501;43.316;5.372;2023-04-24T07:56:33;15.70;99.90
73277;DHT22;61501;43.316;5.372;2023-04-24T07:59:00;15.80;99.90
73277;DHT22;61501;43.316;5.372;2023-04-24T08:01:26;15.70;99.90
73277;DHT22;61501;43.316;5.372;2023-04-24T08:03:52;15.80;99.90
73277;DHT22;61501;43.316;5.372;2023-04-24T08:06:18;15.80;99.90
73277;DHT22;61501;43.316;5.372;2023-04-24T08:08:43;15.70;99.90
73277;DHT22;61501;43.316;5.372;2023-04-24T08:11:09;15.80;99.90
73277;DHT22;61501;43.316;5.372;2023-04-24T08:13:35;16.00;99.90
73277;DHT22;61501;43.316;5.372;2023-04-24T08:16:01;16.00;99.90
73277;DHT22;61501;43.316;5.372;2023-04-24T08:18:26;16.10;99.90
73277;DHT22;61501;43.316;5.372;2023-04-24T08:20:52;16.10;99.90
73277;DHT22;61501;43.316;5.372;2023-04-24T08:23:18;16.30;99.90
73277;DHT22;61501;43.316;5.372;2023-04-24T08:25:44;16.30;99.90
73277;DHT22;61501;43.316;5.372;2023-04-24T08:28:09;16.40;99.90
73277;DHT22;61501;43.316;5.372;2023-04-24T08:30:36;16.40;99.90
73277;DHT22;61501;43.316;5.372;2023-04-24T08:33:03;16.40;99.90
73277;DHT22;61501;43.316;5.372;2023-04-24T08:35:28;16.50;99.90
73277;DHT22;61501;43.316;5.372;2023-04-24T08:37:54;16.50;99.90
73277;DHT22;61501;43.316;5.372;2023-04-24T08:40:23;16.50;99.90
73277;DHT22;61501;43.316;5.372;2023-04-24T08:42:54;16.60;99.90
73277;DHT22;61501;43.316;5.372;2023-04-24T08:45:20;16.60;98.50
73277;DHT22;61501;43.316;5.372;2023-04-24T08:47:46;16.60;98.90
73277;DHT22;61501;43.316;5.372;2023-04-24T08:50:13;16.60;99.90
73277;DHT22;61501;43.316;5.372;2023-04-24T08:52:38;16.70;99.90
73277;DHT22;61501;43.316;5.372;2023-04-24T08:55:05;16.60;99.90
73277;DHT22;61501;43.316;5.372;2023-04-24T08:57:32;16.70;99.90
73277;DHT22;61501;43.316;5.372;2023-04-24T08:59:59;16.70;99.80
73277;DHT22;61501;43.316;5.372;2023-04-24T09:02:26;16.80;96.80
73277;DHT22;61501;43.316;5.372;2023-04-24T09:04:52;16.80;95.20
73277;DHT22;61501;43.316;5.372;2023-04-24T09:07:19;16.80;95.40
73277;DHT22;61501;43.316;5.372;2023-04-24T09:09:45;16.90;93.60
73277;DHT22;61501;43.316;5.372;2023-04-24T09:12:11;17.00;93.10
73277;DHT22;61501;43.316;5.372;2023-04-24T09:14:37;16.90;93.80
73277;DHT22;61501;43.316;5.372;2023-04-24T09:17:10;17.00;92.70
73277;DHT22;61501;43.316;5.372;2023-04-24T09:19:36;16.90;92.70
73277;DHT22;61501;43.316;5.372;2023-04-24T09:22:05;16.90;93.10
73277;DHT22;61501;43.316;5.372;2023-04-24T09:24:31;17.10;93.50
73277;DHT22;61501;43.316;5.372;2023-04-24T09:26:58;17.10;91.50
73277;DHT22;61501;43.316;5.372;2023-04-24T09:29:25;17.00;91.90
73277;DHT22;61501;43.316;5.372;2023-04-24T09:31:50;17.10;91.50
73277;DHT22;61501;43.316;5.372;2023-04-24T09:34:22;17.00;92.10
73277;DHT22;61501;43.316;5.372;2023-04-24T09:36:48;17.00;91.90
73277;DHT22;61501;43.316;5.372;2023-04-24T09:39:15;17.40;90.70
73277;DHT22;61501;43.316;5.372;2023-04-24T09:41:51;17.40;91.20
73277;DHT22;61501;43.316;5.372;2023-04-24T09:44:20;17.40;91.30
73277;DHT22;61501;43.316;5.372;2023-04-24T09:46:57;17.50;89.50
73277;DHT22;61501;43.316;5.372;2023-04-24T09:49:27;17.60;89.50
73277;DHT22;61501;43.316;5.372;2023-04-24T09:52:06;17.60;87.60
73277;DHT22;61501;43.316;5.372;2023-04-24T09:54:32;17.70;87.70
73277;DHT22;61501;43.316;5.372;2023-04-24T09:56:58;17.70;90.50
73277;DHT22;61501;43.316;5.372;2023-04-24T09:59:25;17.70;89.70
73277;DHT22;61501;43.316;5.372;2023-04-24T10:01:51;17.70;86.30
73277;DHT22;61501;43.316;5.372;2023-04-24T10:04:18;17.80;84.30
73277;DHT22;61501;43.316;5.372;2023-04-24T10:06:44;17.80;82.90
73277;DHT22;61501;43.316;5.372;2023-04-24T10:09:10;17.90;74.90
73277;DHT22;61501;43.316;5.372;2023-04-24T10:11:41;17.90;75.40
73277;DHT22;61501;43.316;5.372;2023-04-24T10:14:09;17.90;77.40
73277;DHT22;61501;43.316;5.372;2023-04-24T10:16:36;17.90;74.30
73277;DHT22;61501;43.316;5.372;2023-04-24T10:19:03;18.00;74.50
73277;DHT22;61501;43.316;5.372;2023-04-24T10:21:29;18.10;71.80
73277;DHT22;61501;43.316;5.372;2023-04-24T10:23:55;18.00;73.50
73277;DHT22;61501;43.316;5.372;2023-04-24T10:26:22;17.90;71.40
73277;DHT22;61501;43.316;5.372;2023-04-24T10:28:48;18.00;72.60
73277;DHT22;61501;43.316;5.372;2023-04-24T10:31:14;18.00;71.60
73277;DHT22;61501;43.316;5.372;2023-04-24T10:33:41;17.90;70.90
73277;DHT22;61501;43.316;5.372;2023-04-24T10:36:10;18.10;72.20
73277;DHT22;61501;43.316;5.372;2023-04-24T10:38:37;18.10;71.90
73277;DHT22;61501;43.316;5.372;2023-04-24T10:41:12;18.10;72.90
73277;DHT22;61501;43.316;5.372;2023-04-24T10:44:14;18.20;73.20
73277;DHT22;61501;43.316;5.372;2023-04-24T10:46:44;18.30;70.60
73277;DHT22;61501;43.316;5.372;2023-04-24T10:49:11;18.30;72.10
73277;DHT22;61501;43.316;5.372;2023-04-24T10:54:34;18.50;75.70
73277;DHT22;61501;43.316;5.372;2023-04-24T10:59:52;18.60;73.10
73277;DHT22;61501;43.316;5.372;2023-04-24T11:02:39;18.70;73.90
73277;DHT22;61501;43.316;5.372;2023-04-24T11:05:06;18.70;73.50
73277;DHT22;61501;43.316;5.372;2023-04-24T11:10:47;18.80;72.50
73277;DHT22;61501;43.316;5.372;2023-04-24T11:13:22;18.70;73.30
73277;DHT22;61501;43.316;5.372;2023-04-24T11:16:20;18.80;74.90
73277;DHT22;61501;43.316;5.372;2023-04-24T11:18:59;19.10;72.20
73277;DHT22;61501;43.316;5.372;2023-04-24T11:21:25;19.10;73.80
73277;DHT22;61501;43.316;5.372;2023-04-24T11:23:56;19.20;73.90
73277;DHT22;61501;43.316;5.372;2023-04-24T11:26:22;19.30;74.20
73277;DHT22;61501;43.316;5.372;2023-04-24T11:29:06;19.20;71.00
73277;DHT22;61501;43.316;5.372;2023-04-24T11:31:40;19.10;69.80
73277;DHT22;61501;43.316;5.372;2023-04-24T11:34:14;19.10;70.40
73277;DHT22;61501;43.316;5.372;2023-04-24T11:36:44;19.30;69.20
73277;DHT22;61501;43.316;5.372;2023-04-24T11:39:10;19.50;68.50
73277;DHT22;61501;43.316;5.372;2023-04-24T11:41:36;19.40;68.00
73277;DHT22;61501;43.316;5.372;2023-04-24T11:44:03;19.30;66.60
73277;DHT22;61501;43.316;5.372;2023-04-24T11:46:31;19.30;64.90
73277;DHT22;61501;43.316;5.372;2023-04-24T11:48:58;19.60;62.00
73277;DHT22;61501;43.316;5.372;2023-04-24T11:51:25;19.40;60.50
73277;DHT22;61501;43.316;5.372;2023-04-24T11:53:52;19.50;62.60
73277;DHT22;61501;43.316;5.372;2023-04-24T11:56:18;19.90;60.20
73277;DHT22;61501;43.316;5.372;2023-04-24T11:58:45;19.80;60.00
73277;DHT22;61501;43.316;5.372;2023-04-24T12:01:11;19.50;60.70
73277;DHT22;61501;43.316;5.372;2023-04-24T12:03:37;19.60;61.60
73277;DHT22;61501;43.316;5.372;2023-04-24T12:06:10;20.00;58.80
73277;DHT22;61501;43.316;5.372;2023-04-24T12:08:37;20.60;56.20
73277;DHT22;61501;43.316;5.372;2023-04-24T12:11:04;21.40;53.90
73277;DHT22;61501;43.316;5.372;2023-04-24T12:13:30;21.60;53.30
73277;DHT22;61501;43.316;5.372;2023-04-24T12:15:59;20.70;53.80
73277;DHT22;61501;43.316;5.372;2023-04-24T12:18:25;20.10;55.10
73277;DHT22;61501;43.316;5.372;2023-04-24T12:20:51;19.60;58.40
73277;DHT22;61501;43.316;5.372;2023-04-24T12:23:33;19.60;59.30
73277;DHT22;61501;43.316;5.372;2023-04-24T12:26:00;19.90;56.90
73277;DHT22;61501;43.316;5.372;2023-04-24T12:28:35;19.90;56.20
73277;DHT22;61501;43.316;5.372;2023-04-24T12:31:01;20.00;55.70
73277;DHT22;61501;43.316;5.372;2023-04-24T12:33:27;20.50;54.10
73277;DHT22;61501;43.316;5.372;2023-04-24T12:35:54;21.30;52.20
73277;DHT22;61501;43.316;5.372;2023-04-24T12:38:26;21.80;49.70
73277;DHT22;61501;43.316;5.372;2023-04-24T12:41:12;20.90;51.70
73277;DHT22;61501;43.316;5.372;2023-04-24T12:43:38;20.80;52.90
73277;DHT22;61501;43.316;5.372;2023-04-24T12:46:04;21.10;51.40
73277;DHT22;61501;43.316;5.372;2023-04-24T12:48:30;21.00;50.30
73277;DHT22;61501;43.316;5.372;2023-04-24T12:51:00;21.00;51.20
73277;DHT22;61501;43.316;5.372;2023-04-24T12:53:29;21.40;48.60
73277;DHT22;61501;43.316;5.372;2023-04-24T12:55:55;21.50;49.00
73277;DHT22;61501;43.316;5.372;2023-04-24T12:58:21;21.40;48.50
73277;DHT22;61501;43.316;5.372;2023-04-24T13:00:48;20.90;48.30
73277;DHT22;61501;43.316;5.372;2023-04-24T13:03:14;20.50;50.20
73277;DHT22;61501;43.316;5.372;2023-04-24T13:05:40;20.30;48.90
73277;DHT22;61501;43.316;5.372;2023-04-24T13:08:05;20.00;50.90
73277;DHT22;61501;43.316;5.372;2023-04-24T13:10:31;19.90;51.80
73277;DHT22;61501;43.316;5.372;2023-04-24T13:12:57;19.90;51.60
73277;DHT22;61501;43.316;5.372;2023-04-24T13:15:23;19.70;53.20
73277;DHT22;61501;43.316;5.372;2023-04-24T13:17:50;19.70;52.70
73277;DHT22;61501;43.316;5.372;2023-04-24T13:20:16;19.70;53.70
73277;DHT22;61501;43.316;5.372;2023-04-24T13:22:42;19.70;53.00
73277;DHT22;61501;43.316;5.372;2023-04-24T13:25:08;19.60;53.80
73277;DHT22;61501;43.316;5.372;2023-04-24T13:27:34;19.80;53.80
73277;DHT22;61501;43.316;5.372;2023-04-24T13:30:00;19.80;55.20
73277;DHT22;61501;43.316;5.372;2023-04-24T13:32:25;19.60;55.30
73277;DHT22;61501;43.316;5.372;2023-04-24T13:34:52;19.60;53.80
73277;DHT22;61501;43.316;5.372;2023-04-24T13:37:17;19.60;52.20
73277;DHT22;61501;43.316;5.372;2023-04-24T13:39:43;19.60;54.70
73277;DHT22;61501;43.316;5.372;2023-04-24T13:42:09;19.60;53.40
73277;DHT22;61501;43.316;5.372;2023-04-24T13:44:35;19.60;54.20
73277;DHT22;61501;43.316;5.372;2023-04-24T13:47:00;19.60;51.60
73277;DHT22;61501;43.316;5.372;2023-04-24T13:49:27;19.60;54.10
73277;DHT22;61501;43.316;5.372;2023-04-24T13:51:54;19.60;54.60
73277;DHT22;61501;43.316;5.372;2023-04-24T13:54:20;19.60;54.40
73277;DHT22;61501;43.316;5.372;2023-04-24T13:56:45;19.70;53.10
73277;DHT22;61501;43.316;5.372;2023-04-24T13:59:12;19.70;53.00
73277;DHT22;61501;43.316;5.372;2023-04-24T14:01:38;19.70;50.70
73277;DHT22;61501;43.316;5.372;2023-04-24T14:04:04;19.70;51.80
73277;DHT22;61501;43.316;5.372;2023-04-24T14:06:30;19.70;53.80
73277;DHT22;61501;43.316;5.372;2023-04-24T14:08:56;19.70;51.20
73277;DHT22;61501;43.316;5.372;2023-04-24T14:11:28;19.80;50.70
73277;DHT22;61501;43.316;5.372;2023-04-24T14:13:55;19.70;50.50
73277;DHT22;61501;43.316;5.372;2023-04-24T14:16:22;19.80;51.20
73277;DHT22;61501;43.316;5.372;2023-04-24T14:18:47;19.90;50.90
73277;DHT22;61501;43.316;5.372;2023-04-24T14:21:13;20.00;50.40
73277;DHT22;61501;43.316;5.372;2023-04-24T14:23:38;20.20;49.30
73277;DHT22;61501;43.316;5.372;2023-04-24T14:26:04;20.90;46.90
73277;DHT22;61501;43.316;5.372;2023-04-24T14:28:30;21.50;45.40
73277;DHT22;61501;43.316;5.372;2023-04-24T14:30:55;21.20;46.50
73277;DHT22;61501;43.316;5.372;2023-04-24T14:33:21;21.20;45.70
73277;DHT22;61501;43.316;5.372;2023-04-24T14:35:47;21.50;46.30
73277;DHT22;61501;43.316;5.372;2023-04-24T14:38:13;22.40;44.30
73277;DHT22;61501;43.316;5.372;2023-04-24T14:40:39;22.70;43.30
73277;DHT22;61501;43.316;5.372;2023-04-24T14:43:05;22.80;40.40
73277;DHT22;61501;43.316;5.372;2023-04-24T14:45:30;22.10;42.30
73277;DHT22;61501;43.316;5.372;2023-04-24T14:47:57;22.50;41.30
73277;DHT22;61501;43.316;5.372;2023-04-24T14:50:23;22.60;41.90
73277;DHT22;61501;43.316;5.372;2023-04-24T14:52:49;23.00;41.30
73277;DHT22;61501;43.316;5.372;2023-04-24T14:55:15;23.30;41.00
73277;DHT22;61501;43.316;5.372;2023-04-24T14:57:40;22.90;41.20
73277;DHT22;61501;43.316;5.372;2023-04-24T15:00:07;23.00;41.10
73277;DHT22;61501;43.316;5.372;2023-04-24T15:02:34;22.50;61.00
73277;DHT22;61501;43.316;5.372;2023-04-24T15:05:03;21.50;68.70
73277;DHT22;61501;43.316;5.372;2023-04-24T15:07:29;21.30;70.90
73277;DHT22;61501;43.316;5.372;2023-04-24T15:09:55;20.40;79.20
73277;DHT22;61501;43.316;5.372;2023-04-24T15:12:21;20.20;81.00
73277;DHT22;61501;43.316;5.372;2023-04-24T15:14:47;20.40;77.90
73277;DHT22;61501;43.316;5.372;2023-04-24T15:17:12;20.20;75.90
73277;DHT22;61501;43.316;5.372;2023-04-24T15:19:38;20.60;69.60
73277;DHT22;61501;43.316;5.372;2023-04-24T15:22:03;20.80;69.90
73277;DHT22;61501;43.316;5.372;2023-04-24T15:24:29;20.50;71.90
73277;DHT22;61501;43.316;5.372;2023-04-24T15:26:55;19.90;74.20
73277;DHT22;61501;43.316;5.372;2023-04-24T15:29:21;19.70;73.70
73277;DHT22;61501;43.316;5.372;2023-04-24T15:31:47;20.10;73.80
73277;DHT22;61501;43.316;5.372;2023-04-24T15:34:12;19.70;78.20
73277;DHT22;61501;43.316;5.372;2023-04-24T15:36:38;19.70;72.20